Time;durP1;ratioP1;P1;durP2;ratioP2;P2;SDS_P1;SDS_P2;PMS_P1;PMS_P2;Temp;Humidity;BMP_temperature;BMP_pressure;BME280_temperature;BME280_humidity;BME280_pressure;Samples;Min_cycle;Max_cycle;Signal;HPM_P1;HPM_P2
2021/12/01 00:00:20;;;;;;;3.90;3.50;;;3.40;99.90;;;;;;493968;241;27617;-75
2021/12/01 00:02:21;;;;;;;3.40;3.15;;;3.40;99.90;;;;;;494032;241;27574;-74
2021/12/01 00:04:22;;;;;;;5.15;3.58;;;3.40;99.90;;;;;;493978;241;27514;-75
2021/12/01 00:06:23;;;;;;;3.92;3.53;;;3.40;99.90;;;;;;494018;241;27473;-74
2021/12/01 00:08:25;;;;;;;3.00;2.80;;;3.40;99.90;;;;;;494020;241;27508;-75
2021/12/01 00:10:26;;;;;;;3.45;3.15;;;3.40;99.90;;;;;;494019;241;27513;-75
2021/12/01 00:12:27;;;;;;;3.72;3.42;;;3.40;99.90;;;;;;494053;241;27569;-75
2021/12/01 00:14:28;;;;;;;2.80;2.60;;;3.40;99.90;;;;;;494019;241;28036;-74
2021/12/01 00:16:30;;;;;;;2.75;2.55;;;3.40;99.90;;;;;;494017;241;27930;-74
2021/12/01 00:18:31;;;;;;;3.53;3.22;;;3.40;99.90;;;;;;494003;241;27981;-75
2021/12/01 00:20:32;;;;;;;3.50;3.30;;;3.40;99.90;;;;;;494031;241;27521;-75
2021/12/01 00:22:33;;;;;;;3.10;2.90;;;3.40;99.90;;;;;;494020;241;27473;-75
2021/12/01 00:24:35;;;;;;;3.65;3.35;;;3.40;99.90;;;;;;494002;241;27620;-75
2021/12/01 00:26:36;;;;;;;3.20;3.00;;;3.40;99.90;;;;;;494000;241;27489;-74
2021/12/01 00:28:37;;;;;;;3.25;3.00;;;3.40;99.90;;;;;;494003;241;27506;-75
2021/12/01 00:30:40;;;;;;;2.95;2.75;;;3.50;99.90;;;;;;494011;241;27510;-75
2021/12/01 00:32:40;;;;;;;3.00;2.80;;;3.50;99.90;;;;;;493886;241;27563;-74
2021/12/01 00:34:41;;;;;;;3.85;2.90;;;3.50;99.90;;;;;;494011;241;27517;-75
2021/12/01 00:36:42;;;;;;;3.15;2.92;;;3.50;99.90;;;;;;494017;241;27557;-75
2021/12/01 00:38:43;;;;;;;3.00;2.80;;;3.40;99.90;;;;;;494021;241;27469;-75
2021/12/01 00:40:45;;;;;;;2.80;2.60;;;3.50;99.90;;;;;;494028;241;28009;-75
2021/12/01 00:42:46;;;;;;;2.95;2.75;;;3.40;99.90;;;;;;494025;241;27895;-75
2021/12/01 00:44:53;;;;;;;3.62;3.25;;;3.40;99.90;;;;;;494025;241;28045;-75
2021/12/01 00:46:56;;;;;;;3.00;2.80;;;3.50;99.90;;;;;;493477;241;27945;-75
2021/12/01 00:48:55;;;;;;;3.53;3.22;;;3.40;99.90;;;;;;493861;241;27458;-75
2021/12/01 00:50:57;;;;;;;4.00;3.60;;;3.40;99.90;;;;;;494039;241;27636;-74
2021/12/01 00:52:59;;;;;;;3.40;3.10;;;3.40;99.90;;;;;;494025;241;27516;-75
2021/12/01 00:54:59;;;;;;;3.78;3.42;;;3.40;99.90;;;;;;493914;241;27603;-74
2021/12/01 00:57:01;;;;;;;3.78;3.45;;;3.40;99.90;;;;;;494057;241;27509;-74
2021/12/01 00:59:02;;;;;;;3.25;3.05;;;3.40;99.90;;;;;;494023;241;27524;-75
2021/12/01 01:01:03;;;;;;;3.50;3.20;;;3.40;99.90;;;;;;494004;241;27517;-75
2021/12/01 01:03:04;;;;;;;3.37;3.08;;;3.40;99.90;;;;;;494008;241;27481;-75
2021/12/01 01:05:05;;;;;;;3.80;3.50;;;3.40;99.90;;;;;;493992;241;27980;-75
2021/12/01 01:07:07;;;;;;;3.28;2.97;;;3.40;99.90;;;;;;494032;241;28070;-75
2021/12/01 01:09:08;;;;;;;3.42;3.15;;;3.40;99.90;;;;;;494036;241;28083;-75
2021/12/01 01:16:22;;;;;;;4.35;3.95;;;3.40;99.90;;;;;;494028;241;27963;-75
2021/12/01 01:17:37;;;;;;;3.95;3.65;;;3.40;99.90;;;;;;494025;241;29082;-76
2021/12/01 01:19:38;;;;;;;4.93;4.03;;;3.40;99.90;;;;;;494028;241;27549;-75
2021/12/01 01:21:42;;;;;;;4.30;3.90;;;3.40;99.90;;;;;;494056;241;27490;-75
2021/12/01 01:23:41;;;;;;;3.80;3.50;;;3.40;99.90;;;;;;493907;241;27548;-75
2021/12/01 01:25:42;;;;;;;5.37;4.30;;;3.40;99.90;;;;;;494003;241;27631;-75
2021/12/01 01:27:43;;;;;;;5.35;4.28;;;3.40;99.90;;;;;;494009;241;27497;-74
2021/12/01 01:29:45;;;;;;;4.40;4.00;;;3.40;99.90;;;;;;494025;241;27514;-75
2021/12/01 01:31:46;;;;;;;4.57;4.18;;;3.40;99.90;;;;;;494031;241;27542;-75
2021/12/01 01:33:47;;;;;;;4.45;4.05;;;3.40;99.90;;;;;;494008;241;27501;-76
2021/12/01 01:35:48;;;;;;;4.53;4.10;;;3.40;99.90;;;;;;494034;241;27472;-75
2021/12/01 01:37:50;;;;;;;5.75;5.20;;;3.40;99.90;;;;;;494040;241;27522;-75
2021/12/01 01:39:51;;;;;;;5.10;4.60;;;3.40;99.90;;;;;;494029;241;28002;-75
2021/12/01 01:41:54;;;;;;;4.30;3.90;;;3.40;99.90;;;;;;494022;241;28078;-75
2021/12/01 01:43:53;;;;;;;4.37;3.85;;;3.40;99.90;;;;;;493933;241;28049;-75
2021/12/01 01:45:55;;;;;;;4.30;3.90;;;3.40;99.90;;;;;;494060;241;27933;-74
2021/12/01 01:48:03;;;;;;;4.68;4.15;;;3.40;99.90;;;;;;494014;241;27602;-75
2021/12/01 01:50:15;;;;;;;5.30;4.12;;;3.50;99.90;;;;;;493676;241;27600;-74
2021/12/01 01:52:01;;;;;;;4.37;3.90;;;3.40;99.90;;;;;;492762;241;27522;-75
2021/12/01 01:54:03;;;;;;;4.97;4.28;;;3.50;99.90;;;;;;493988;241;27519;-74
2021/12/01 01:56:04;;;;;;;4.65;4.10;;;3.50;99.90;;;;;;494045;241;27505;-75
2021/12/01 01:58:05;;;;;;;4.60;4.05;;;3.50;99.90;;;;;;494000;241;27477;-75
2021/12/01 02:00:08;;;;;;;5.37;4.18;;;3.50;99.90;;;;;;493980;241;27991;-75
2021/12/01 02:02:08;;;;;;;5.50;4.45;;;3.50;99.90;;;;;;493789;241;28822;-75
2021/12/01 02:04:09;;;;;;;4.55;3.90;;;3.50;99.90;;;;;;493978;241;29100;-75
2021/12/01 02:06:10;;;;;;;4.30;3.90;;;3.50;99.90;;;;;;493976;241;28045;-75
2021/12/01 02:08:28;;;;;;;8.35;4.75;;;3.50;99.90;;;;;;494008;241;27463;-75
2021/12/01 02:10:21;;;;;;;5.60;4.70;;;3.50;99.90;;;;;;493309;241;27462;-74
2021/12/01 02:12:23;;;;;;;6.18;4.50;;;3.60;99.90;;;;;;494005;237;27612;-75
2021/12/01 02:14:24;;;;;;;6.20;5.10;;;3.50;99.90;;;;;;494021;241;27575;-74
2021/12/01 02:16:25;;;;;;;5.45;4.93;;;3.50;99.90;;;;;;494047;241;27509;-75
2021/12/01 02:18:26;;;;;;;7.87;6.20;;;3.60;99.90;;;;;;494068;241;27511;-74
2021/12/01 02:20:28;;;;;;;8.23;6.82;;;3.60;99.90;;;;;;494049;241;27473;-75
2021/12/01 02:22:33;;;;;;;9.50;7.65;;;3.60;99.90;;;;;;494012;241;27537;-75
2021/12/01 02:24:30;;;;;;;11.85;9.13;;;3.60;99.90;;;;;;493608;237;27517;-75
2021/12/01 02:26:32;;;;;;;10.38;8.68;;;3.60;99.90;;;;;;494036;241;27961;-75
2021/12/01 02:28:33;;;;;;;14.55;12.15;;;3.60;99.90;;;;;;494022;241;27981;-75
2021/12/01 02:30:34;;;;;;;17.15;13.38;;;3.60;99.90;;;;;;494012;237;27459;-75
2021/12/01 02:32:35;;;;;;;14.70;12.35;;;3.60;99.90;;;;;;493993;241;27584;-74
2021/12/01 02:34:39;;;;;;;16.15;12.05;;;3.60;99.90;;;;;;494007;241;27505;-75
2021/12/01 02:36:38;;;;;;;18.67;15.25;;;3.70;99.90;;;;;;493851;241;27447;-74
2021/12/01 02:38:40;;;;;;;16.95;15.07;;;3.60;99.90;;;;;;494009;241;27505;-75
2021/12/01 02:40:40;;;;;;;12.55;10.70;;;3.60;99.90;;;;;;493951;241;27530;-75
2021/12/01 02:42:41;;;;;;;12.45;9.52;;;3.70;99.90;;;;;;494033;241;27917;-75
2021/12/01 02:44:43;;;;;;;12.85;8.98;;;3.70;99.90;;;;;;494008;241;29085;-74
2021/12/01 02:46:44;;;;;;;11.27;8.88;;;3.70;99.90;;;;;;494024;241;27464;-75
2021/12/01 02:48:46;;;;;;;11.85;8.95;;;3.70;99.90;;;;;;493969;241;27607;-75
2021/12/01 02:50:46;;;;;;;9.45;7.47;;;3.70;99.90;;;;;;493972;241;27470;-75
2021/12/01 02:52:48;;;;;;;12.15;8.10;;;3.70;99.90;;;;;;494018;241;27492;-75
2021/12/01 02:54:49;;;;;;;16.40;8.30;;;3.70;99.90;;;;;;494028;241;27596;-74
2021/12/01 02:56:50;;;;;;;11.52;7.65;;;3.70;99.90;;;;;;494004;241;27457;-75
2021/12/01 02:58:52;;;;;;;9.02;7.03;;;3.70;99.90;;;;;;493999;241;27512;-75
2021/12/01 03:00:53;;;;;;;11.88;7.57;;;3.70;99.90;;;;;;493963;241;27500;-74
2021/12/01 03:02:56;;;;;;;11.32;7.60;;;3.70;99.90;;;;;;494007;241;27902;-75
2021/12/01 03:04:55;;;;;;;10.35;6.93;;;3.70;99.90;;;;;;493857;241;27990;-75
2021/12/01 03:06:56;;;;;;;10.82;6.95;;;3.70;99.90;;;;;;493944;241;29018;-75
2021/12/01 03:08:58;;;;;;;10.05;6.40;;;3.70;99.90;;;;;;494002;241;27513;-75
2021/12/01 03:10:59;;;;;;;9.15;6.47;;;3.70;99.90;;;;;;493986;241;27533;-76
2021/12/01 03:13:00;;;;;;;8.85;6.90;;;3.70;99.90;;;;;;494016;241;27478;-75
2021/12/01 03:15:01;;;;;;;7.50;6.40;;;3.70;99.90;;;;;;494041;241;27508;-74
2021/12/01 03:17:03;;;;;;;9.20;6.93;;;3.70;99.90;;;;;;493993;241;27608;-74
2021/12/01 03:19:04;;;;;;;10.70;7.10;;;3.70;99.90;;;;;;494038;241;27514;-75
2021/12/01 03:21:05;;;;;;;8.95;6.72;;;3.70;99.90;;;;;;494027;241;27847;-75
2021/12/01 03:23:06;;;;;;;10.23;6.60;;;3.70;99.90;;;;;;494018;241;27483;-75
2021/12/01 03:25:08;;;;;;;8.32;6.65;;;3.70;99.90;;;;;;493994;241;28081;-75
2021/12/01 03:27:09;;;;;;;7.55;6.25;;;3.80;99.90;;;;;;493981;241;27902;-75
2021/12/01 03:29:14;;;;;;;8.02;6.37;;;3.70;99.90;;;;;;493943;241;29101;-75
2021/12/01 03:31:11;;;;;;;9.00;7.03;;;3.70;99.90;;;;;;493723;241;27972;-76
2021/12/01 03:33:13;;;;;;;9.60;7.07;;;3.80;99.90;;;;;;494018;241;27517;-75
2021/12/01 03:35:14;;;;;;;12.18;7.40;;;3.80;99.90;;;;;;493987;241;27597;-75
2021/12/01 03:37:15;;;;;;;8.15;6.65;;;3.80;99.90;;;;;;493989;241;27466;-75
2021/12/01 03:39:16;;;;;;;10.23;6.97;;;3.80;99.90;;;;;;493989;241;27482;-75
2021/12/01 03:41:18;;;;;;;9.13;7.53;;;3.80;99.90;;;;;;494015;241;27505;-75
2021/12/01 03:43:19;;;;;;;8.63;6.97;;;3.80;99.90;;;;;;493996;241;27573;-75
2021/12/01 03:45:20;;;;;;;12.65;7.87;;;3.80;99.90;;;;;;493955;241;27596;-76
2021/12/01 03:47:22;;;;;;;8.48;7.30;;;3.80;99.90;;;;;;493987;241;27569;-74
2021/12/01 03:49:23;;;;;;;10.50;7.60;;;3.80;99.90;;;;;;494000;241;27517;-74
2021/12/01 03:51:24;;;;;;;9.50;7.45;;;3.80;99.90;;;;;;493985;241;28075;-75
2021/12/01 03:53:25;;;;;;;10.00;7.40;;;3.80;99.90;;;;;;493980;241;27918;-75
2021/12/01 03:55:27;;;;;;;8.77;6.72;;;3.80;99.90;;;;;;493881;241;29201;-74
2021/12/01 03:57:28;;;;;;;8.15;6.50;;;3.80;99.90;;;;;;493936;237;27522;-75
2021/12/01 03:59:29;;;;;;;10.57;7.07;;;3.80;99.90;;;;;;493954;241;27466;-75
2021/12/01 04:01:30;;;;;;;10.63;7.43;;;3.80;99.90;;;;;;493960;241;27537;-75
2021/12/01 04:03:32;;;;;;;7.45;6.72;;;3.80;99.90;;;;;;494002;241;27450;-75
2021/12/01 04:05:33;;;;;;;9.32;7.15;;;3.80;99.90;;;;;;493980;241;27632;-75
2021/12/01 04:07:34;;;;;;;7.90;6.95;;;3.80;99.90;;;;;;494031;241;27879;-74
2021/12/01 04:09:35;;;;;;;8.98;6.93;;;3.80;99.90;;;;;;494003;241;27467;-74
2021/12/01 04:11:37;;;;;;;7.57;6.78;;;3.80;99.90;;;;;;493972;241;27524;-74
2021/12/01 04:13:38;;;;;;;8.15;6.82;;;3.80;99.90;;;;;;493993;241;27552;-76
2021/12/01 04:15:39;;;;;;;8.40;6.85;;;3.70;99.90;;;;;;493987;241;28081;-75
2021/12/01 04:17:40;;;;;;;7.28;6.55;;;3.70;99.90;;;;;;494058;241;28047;-75
2021/12/01 04:19:42;;;;;;;9.10;6.15;;;3.80;99.90;;;;;;494049;241;28001;-75
2021/12/01 04:21:43;;;;;;;7.95;7.00;;;3.70;99.90;;;;;;494048;241;27510;-75
2021/12/01 04:23:44;;;;;;;8.95;6.90;;;3.80;99.90;;;;;;494010;241;27552;-75
2021/12/01 04:25:45;;;;;;;6.62;5.78;;;3.80;99.90;;;;;;494032;241;27521;-74
2021/12/01 04:27:47;;;;;;;7.05;6.35;;;3.80;99.90;;;;;;494019;241;27520;-74
2021/12/01 04:29:48;;;;;;;11.55;8.05;;;3.80;99.90;;;;;;493995;241;27547;-75
2021/12/01 04:31:50;;;;;;;7.78;6.50;;;3.80;99.90;;;;;;494035;241;27490;-75
2021/12/01 04:33:50;;;;;;;9.70;7.55;;;3.80;99.90;;;;;;493994;241;27457;-74
2021/12/01 04:35:53;;;;;;;11.12;6.50;;;3.80;99.90;;;;;;494009;241;27581;-75
2021/12/01 04:37:53;;;;;;;10.25;6.40;;;3.80;99.90;;;;;;493915;241;27499;-74
2021/12/01 04:39:54;;;;;;;9.05;6.60;;;3.90;99.90;;;;;;494008;241;27910;-74
2021/12/01 04:41:57;;;;;;;7.32;6.00;;;3.90;99.90;;;;;;494024;241;27980;-74
2021/12/01 04:44:00;;;;;;;6.28;5.68;;;3.90;99.90;;;;;;493886;241;29894;-75
2021/12/01 04:46:01;;;;;;;8.10;5.90;;;3.90;99.90;;;;;;493761;241;27956;-75
2021/12/01 04:48:02;;;;;;;8.60;5.97;;;3.90;99.90;;;;;;494010;241;27497;-75
2021/12/01 04:50:03;;;;;;;8.27;6.60;;;3.90;99.90;;;;;;493994;241;27520;-75
2021/12/01 04:52:05;;;;;;;6.50;5.70;;;3.90;99.90;;;;;;493984;241;27569;-75
2021/12/01 04:54:06;;;;;;;6.25;5.40;;;3.90;99.90;;;;;;494003;241;27509;-75
2021/12/01 04:56:07;;;;;;;7.45;5.53;;;4.00;99.90;;;;;;494001;241;27645;-75
2021/12/01 04:58:08;;;;;;;6.65;5.37;;;4.00;99.90;;;;;;494047;241;27490;-75
2021/12/01 05:00:10;;;;;;;5.82;5.12;;;4.00;99.90;;;;;;494033;241;27513;-75
2021/12/01 05:02:11;;;;;;;7.70;5.78;;;4.00;99.90;;;;;;494007;241;27466;-75
2021/12/01 05:04:12;;;;;;;8.52;6.10;;;4.00;99.90;;;;;;494000;241;27621;-74
2021/12/01 05:06:15;;;;;;;5.93;5.28;;;4.00;99.90;;;;;;493960;241;27980;-75
2021/12/01 05:08:15;;;;;;;5.82;5.10;;;4.00;99.90;;;;;;493847;241;27934;-75
2021/12/01 05:10:16;;;;;;;8.55;5.00;;;4.00;99.90;;;;;;494024;241;29046;-75
2021/12/01 05:12:17;;;;;;;10.32;4.75;;;4.00;99.90;;;;;;494023;241;28811;-75
2021/12/01 05:14:20;;;;;;;6.85;4.82;;;4.00;99.90;;;;;;494035;241;27518;-75
2021/12/01 05:16:20;;;;;;;5.93;4.50;;;4.10;99.90;;;;;;493916;241;27600;-74
2021/12/01 05:18:21;;;;;;;5.45;4.62;;;4.00;99.90;;;;;;494027;241;27596;-74
2021/12/01 05:20:22;;;;;;;6.62;4.90;;;4.10;99.90;;;;;;493997;241;27533;-75
2021/12/01 05:22:25;;;;;;;5.93;4.80;;;4.10;99.90;;;;;;494035;241;27580;-74
2021/12/01 05:24:25;;;;;;;10.63;4.43;;;4.10;99.90;;;;;;493892;241;27568;-74
2021/12/01 05:26:26;;;;;;;5.05;4.20;;;4.10;99.90;;;;;;493972;241;27540;-75
2021/12/01 05:28:27;;;;;;;8.02;5.10;;;4.10;99.90;;;;;;493977;241;27470;-74
2021/12/01 05:30:28;;;;;;;5.82;5.00;;;4.10;99.90;;;;;;493998;241;27536;-74
2021/12/01 05:32:31;;;;;;;7.12;4.90;;;4.10;99.90;;;;;;494014;241;28141;-75
2021/12/01 05:34:31;;;;;;;5.50;4.90;;;4.10;99.90;;;;;;493939;241;27920;-74
2021/12/01 05:36:32;;;;;;;6.28;4.85;;;4.10;99.90;;;;;;494019;241;27989;-75
2021/12/01 05:38:33;;;;;;;5.60;5.10;;;4.10;99.90;;;;;;493989;241;27969;-74
2021/12/01 05:40:35;;;;;;;8.32;4.85;;;4.20;99.90;;;;;;494015;241;27679;-74
2021/12/01 05:42:36;;;;;;;7.47;4.72;;;4.10;99.90;;;;;;493999;241;27510;-74
2021/12/01 05:44:37;;;;;;;5.68;4.55;;;4.10;99.90;;;;;;494024;241;27544;-74
2021/12/01 05:46:38;;;;;;;5.03;4.53;;;4.10;99.90;;;;;;493987;241;27546;-75
2021/12/01 05:48:40;;;;;;;5.25;4.50;;;4.10;99.90;;;;;;494010;241;27473;-74
2021/12/01 05:50:41;;;;;;;6.28;4.10;;;4.10;99.90;;;;;;493994;241;27513;-74
2021/12/01 05:52:42;;;;;;;4.85;4.45;;;4.10;99.90;;;;;;494031;241;27875;-75
2021/12/01 05:54:43;;;;;;;4.30;3.90;;;4.10;99.90;;;;;;494008;241;27489;-74
2021/12/01 05:56:45;;;;;;;4.25;3.83;;;4.10;99.90;;;;;;493575;241;27521;-75
2021/12/01 05:58:46;;;;;;;4.50;4.10;;;4.20;99.90;;;;;;493357;241;28336;-74
2021/12/01 06:00:47;;;;;;;4.10;3.70;;;4.20;99.90;;;;;;493389;241;27968;-75
2021/12/01 06:02:52;;;;;;;4.32;3.92;;;4.20;99.90;;;;;;493704;241;28103;-74
2021/12/01 06:04:52;;;;;;;4.18;3.85;;;4.20;99.90;;;;;;493994;241;27557;-74
2021/12/01 06:06:53;;;;;;;4.37;3.97;;;4.20;99.90;;;;;;494010;241;27514;-74
2021/12/01 06:08:56;;;;;;;5.37;3.70;;;4.20;99.90;;;;;;494048;241;27696;-75
2021/12/01 06:10:56;;;;;;;4.68;4.22;;;4.20;99.90;;;;;;494004;241;27530;-74
2021/12/01 06:12:57;;;;;;;7.25;4.10;;;4.20;99.90;;;;;;494028;241;27603;-74
2021/12/01 06:14:59;;;;;;;5.35;4.95;;;4.20;99.90;;;;;;494062;241;27521;-75
2021/12/01 06:17:00;;;;;;;4.72;4.20;;;4.20;99.90;;;;;;494026;241;27459;-75
2021/12/01 06:19:01;;;;;;;4.45;4.05;;;4.20;99.90;;;;;;494038;241;27517;-76
2021/12/01 06:21:03;;;;;;;5.70;3.80;;;4.20;99.90;;;;;;494013;241;27498;-74
2021/12/01 06:23:03;;;;;;;4.03;3.72;;;4.20;99.90;;;;;;494046;241;27458;-75
2021/12/01 06:25:05;;;;;;;6.43;4.10;;;4.30;99.90;;;;;;494030;241;27951;-74
2021/12/01 06:27:06;;;;;;;4.93;3.97;;;4.20;99.90;;;;;;493985;241;27949;-75
2021/12/01 06:29:07;;;;;;;3.30;3.00;;;4.30;99.90;;;;;;493993;241;29182;-75
2021/12/01 06:31:08;;;;;;;5.10;3.40;;;4.30;99.90;;;;;;493994;241;29225;-75
2021/12/01 06:33:10;;;;;;;5.25;3.67;;;4.30;99.90;;;;;;493987;241;27470;-75
2021/12/01 06:35:11;;;;;;;3.05;2.85;;;4.30;99.90;;;;;;494006;241;27633;-75
2021/12/01 06:37:12;;;;;;;3.00;2.80;;;4.30;99.90;;;;;;494002;241;27576;-75
2021/12/01 06:39:13;;;;;;;3.97;3.33;;;4.30;99.90;;;;;;494002;241;27593;-74
2021/12/01 06:41:15;;;;;;;4.22;3.72;;;4.30;99.90;;;;;;494017;241;27850;-75
2021/12/01 06:43:16;;;;;;;3.90;3.37;;;4.40;99.90;;;;;;494028;241;27481;-75
2021/12/01 06:45:17;;;;;;;3.60;3.30;;;4.40;99.90;;;;;;494032;241;27603;-74
2021/12/01 06:47:18;;;;;;;3.25;2.95;;;4.40;99.90;;;;;;493996;241;27491;-74
2021/12/01 06:49:20;;;;;;;3.42;3.10;;;4.40;99.90;;;;;;493984;241;27516;-75
2021/12/01 06:51:21;;;;;;;3.28;2.80;;;4.40;99.90;;;;;;493999;241;27628;-75
2021/12/01 06:53:22;;;;;;;3.30;3.00;;;4.40;99.90;;;;;;494001;241;28018;-75
2021/12/01 06:55:23;;;;;;;3.95;3.30;;;4.40;99.90;;;;;;494019;241;27990;-74
2021/12/01 06:57:25;;;;;;;3.55;3.25;;;4.40;99.90;;;;;;493974;241;27936;-75
2021/12/01 06:59:26;;;;;;;3.40;3.10;;;4.40;99.90;;;;;;493988;241;27489;-75
2021/12/01 07:01:27;;;;;;;4.68;3.90;;;4.40;99.90;;;;;;494004;241;27497;-74
2021/12/01 07:03:29;;;;;;;3.50;3.20;;;4.40;99.90;;;;;;494005;241;27482;-75
2021/12/01 07:05:30;;;;;;;3.00;2.80;;;4.40;99.90;;;;;;493953;241;27512;-75
2021/12/01 07:07:31;;;;;;;2.75;2.55;;;4.40;99.90;;;;;;493974;241;27498;-75
2021/12/01 07:09:32;;;;;;;3.28;2.97;;;4.40;99.90;;;;;;493990;241;27863;-75
2021/12/01 07:11:34;;;;;;;3.33;3.03;;;4.40;99.90;;;;;;493992;241;27545;-75
2021/12/01 07:13:35;;;;;;;2.83;2.62;;;4.50;99.90;;;;;;494007;241;27564;-75
2021/12/01 07:15:36;;;;;;;2.80;2.60;;;4.50;99.90;;;;;;493943;241;27499;-75
2021/12/01 07:17:37;;;;;;;2.80;2.60;;;4.50;99.90;;;;;;493967;241;27469;-75
2021/12/01 07:19:39;;;;;;;2.67;2.47;;;4.50;99.90;;;;;;493971;241;28031;-75
2021/12/01 07:21:40;;;;;;;2.72;2.50;;;4.50;99.90;;;;;;494010;241;27987;-75
2021/12/01 07:23:41;;;;;;;2.92;2.30;;;4.50;99.90;;;;;;493991;241;27913;-75
2021/12/01 07:25:42;;;;;;;4.35;2.53;;;4.50;99.90;;;;;;493988;241;29087;-74
2021/12/01 07:27:44;;;;;;;2.42;2.30;;;4.50;99.90;;;;;;493999;241;27528;-74
2021/12/01 07:29:45;;;;;;;2.55;2.35;;;4.50;99.90;;;;;;493992;241;27497;-74
2021/12/01 07:31:48;;;;;;;2.58;2.20;;;4.50;99.90;;;;;;493961;241;27505;-76
2021/12/01 07:33:47;;;;;;;2.70;2.50;;;4.60;99.90;;;;;;493800;241;27455;-74
2021/12/01 07:35:49;;;;;;;3.78;3.47;;;4.60;99.90;;;;;;493997;241;27505;-75
2021/12/01 07:37:50;;;;;;;2.90;2.70;;;4.60;99.90;;;;;;494011;241;27866;-75
2021/12/01 07:39:51;;;;;;;3.15;2.45;;;4.60;99.90;;;;;;493959;241;27485;-75
2021/12/01 07:41:52;;;;;;;2.95;2.67;;;4.60;99.90;;;;;;493433;241;27608;-74
2021/12/01 07:43:54;;;;;;;2.50;2.30;;;4.60;99.90;;;;;;493968;241;27526;-75
2021/12/01 07:45:55;;;;;;;2.70;2.50;;;4.60;99.90;;;;;;493981;241;27598;-75
2021/12/01 07:47:56;;;;;;;1.92;1.83;;;4.70;99.90;;;;;;494004;241;28055;-75
2021/12/01 07:49:57;;;;;;;2.00;1.90;;;4.70;99.90;;;;;;494017;241;28003;-74
2021/12/01 07:51:59;;;;;;;4.68;1.90;;;4.70;99.90;;;;;;494036;241;29841;-74
2021/12/01 07:54:00;;;;;;;1.90;1.80;;;4.70;99.90;;;;;;494019;241;29113;-74
2021/12/01 07:56:05;;;;;;;2.22;2.12;;;4.70;99.90;;;;;;494032;241;27494;-75
2021/12/01 07:58:02;;;;;;;2.28;1.98;;;4.70;99.90;;;;;;493730;241;27508;-75
2021/12/01 08:00:04;;;;;;;1.90;1.80;;;4.70;99.90;;;;;;493988;241;27548;-73
2021/12/01 08:02:05;;;;;;;1.73;1.62;;;4.70;99.90;;;;;;493990;241;27517;-74
2021/12/01 08:04:06;;;;;;;2.10;2.00;;;4.80;99.90;;;;;;493993;241;27544;-74
2021/12/01 08:06:08;;;;;;;2.00;1.85;;;4.80;99.90;;;;;;494036;241;27470;-75
2021/12/01 08:08:10;;;;;;;2.75;2.55;;;4.80;99.90;;;;;;493536;241;27515;-75
2021/12/01 08:10:10;;;;;;;3.55;3.35;;;4.80;99.90;;;;;;493880;241;27473;-74
2021/12/01 08:12:11;;;;;;;3.20;2.97;;;4.80;99.90;;;;;;494011;241;27576;-75
2021/12/01 08:14:12;;;;;;;2.75;2.65;;;4.80;99.90;;;;;;494054;241;27500;-74
2021/12/01 08:16:14;;;;;;;2.12;2.03;;;4.80;99.90;;;;;;494043;241;27470;-74
2021/12/01 08:18:15;;;;;;;2.53;2.33;;;4.80;99.90;;;;;;494071;241;28064;-75
2021/12/01 08:20:16;;;;;;;1.83;1.73;;;4.80;99.90;;;;;;494028;241;27974;-76
2021/12/01 08:22:17;;;;;;;2.15;2.00;;;4.80;99.90;;;;;;494049;241;29094;-75
2021/12/01 08:24:19;;;;;;;1.50;1.50;;;4.90;99.90;;;;;;494012;241;27666;-75
2021/12/01 08:26:20;;;;;;;1.80;1.70;;;4.90;99.90;;;;;;494029;241;27532;-74
2021/12/01 08:28:21;;;;;;;1.83;1.70;;;4.90;99.90;;;;;;493994;241;27589;-75
2021/12/01 08:30:22;;;;;;;2.58;1.73;;;4.90;99.90;;;;;;494026;241;27603;-75
2021/12/01 08:32:24;;;;;;;1.92;1.83;;;5.00;99.90;;;;;;494031;241;27504;-74
2021/12/01 08:34:25;;;;;;;1.75;1.65;;;5.00;99.90;;;;;;494017;241;27524;-75
2021/12/01 08:36:26;;;;;;;2.65;1.60;;;5.00;99.90;;;;;;494031;241;27477;-74
2021/12/01 08:38:27;;;;;;;1.58;1.48;;;5.00;99.90;;;;;;494018;239;27551;-75
2021/12/01 08:40:29;;;;;;;1.77;1.67;;;5.00;99.90;;;;;;494029;241;27463;-74
2021/12/01 08:42:30;;;;;;;2.12;1.80;;;5.00;99.90;;;;;;494022;241;28007;-74
2021/12/01 08:44:31;;;;;;;1.70;1.60;;;5.00;99.90;;;;;;494009;241;28129;-75
2021/12/01 08:46:32;;;;;;;1.70;1.60;;;5.00;99.90;;;;;;494008;241;29076;-75
2021/12/01 08:48:34;;;;;;;1.50;1.50;;;5.10;99.90;;;;;;494008;241;28018;-75
2021/12/01 08:50:35;;;;;;;2.12;1.92;;;5.10;99.90;;;;;;494016;241;27458;-74
2021/12/01 08:52:36;;;;;;;1.73;1.65;;;5.10;99.90;;;;;;494027;241;27490;-75
2021/12/01 08:54:37;;;;;;;1.70;1.60;;;5.20;99.90;;;;;;494028;241;27509;-75
2021/12/01 08:56:39;;;;;;;1.75;1.65;;;5.20;99.90;;;;;;494024;241;27470;-75
2021/12/01 08:58:40;;;;;;;1.67;1.58;;;5.30;99.90;;;;;;493999;241;27515;-75
2021/12/01 09:00:44;;;;;;;1.60;1.50;;;5.30;99.90;;;;;;494011;241;27592;-75
2021/12/01 09:02:42;;;;;;;1.50;1.50;;;5.30;99.90;;;;;;493827;241;27553;-75
2021/12/01 09:04:44;;;;;;;1.60;1.50;;;5.30;99.90;;;;;;494040;241;27508;-75
2021/12/01 09:06:45;;;;;;;1.50;1.45;;;5.30;99.90;;;;;;494020;241;27561;-74
2021/12/01 09:08:46;;;;;;;1.35;1.33;;;5.40;99.90;;;;;;494007;241;27979;-74
2021/12/01 09:10:47;;;;;;;1.40;1.30;;;5.40;99.90;;;;;;494012;237;28143;-75
2021/12/01 09:12:49;;;;;;;1.40;1.30;;;5.40;99.90;;;;;;494037;241;27932;-73
2021/12/01 09:14:52;;;;;;;1.60;1.50;;;5.40;99.90;;;;;;494029;241;27544;-74
2021/12/01 09:16:51;;;;;;;1.40;1.30;;;5.40;99.90;;;;;;493870;241;27451;-74
2021/12/01 09:18:52;;;;;;;1.52;1.48;;;5.50;99.90;;;;;;493981;241;27669;-74
2021/12/01 09:20:54;;;;;;;1.70;1.62;;;5.50;99.90;;;;;;494019;241;27509;-75
2021/12/01 09:22:55;;;;;;;1.98;1.60;;;5.50;99.90;;;;;;494035;241;27897;-75
2021/12/01 09:24:56;;;;;;;1.40;1.40;;;5.50;99.90;;;;;;494055;241;27627;-74
2021/12/01 09:26:57;;;;;;;1.98;1.60;;;5.50;99.90;;;;;;494024;241;27564;-73
2021/12/01 09:28:59;;;;;;;1.50;1.40;;;5.50;99.90;;;;;;494023;241;27529;-75
2021/12/01 09:31:00;;;;;;;1.75;1.50;;;5.50;99.90;;;;;;494015;241;28052;-80
2021/12/01 09:33:01;;;;;;;1.17;1.17;;;5.50;99.90;;;;;;494023;241;27937;-75
2021/12/01 09:35:02;;;;;;;1.27;1.25;;;5.50;99.90;;;;;;493989;241;28008;-75
2021/12/01 09:37:04;;;;;;;1.40;1.30;;;5.50;99.90;;;;;;494016;241;27470;-74
2021/12/01 09:39:05;;;;;;;1.17;1.17;;;5.50;99.90;;;;;;494047;241;27595;-74
2021/12/01 09:41:06;;;;;;;1.00;1.00;;;5.60;99.90;;;;;;494054;241;27580;-75
2021/12/01 09:43:07;;;;;;;1.10;1.10;;;5.60;99.90;;;;;;494004;241;27480;-75
2021/12/01 09:45:09;;;;;;;1.50;1.40;;;5.60;99.90;;;;;;494022;241;27620;-75
2021/12/01 09:47:10;;;;;;;1.30;1.20;;;5.60;99.90;;;;;;494043;241;27476;-75
2021/12/01 09:49:11;;;;;;;1.02;1.02;;;5.60;99.90;;;;;;493993;241;27523;-75
2021/12/01 09:51:12;;;;;;;1.40;1.30;;;5.60;99.90;;;;;;494008;241;28206;-75
2021/12/01 09:53:14;;;;;;;1.10;1.10;;;5.60;99.90;;;;;;494018;241;27993;-75
2021/12/01 09:55:16;;;;;;;1.20;1.20;;;5.60;99.90;;;;;;493996;241;27493;-75
2021/12/01 09:57:16;;;;;;;1.30;1.20;;;5.60;99.90;;;;;;493967;241;27529;-75
2021/12/01 09:59:17;;;;;;;1.23;1.23;;;5.70;99.90;;;;;;493998;241;27584;-76
2021/12/01 10:01:19;;;;;;;1.02;1.02;;;5.70;99.90;;;;;;494017;241;27514;-74
2021/12/01 10:03:20;;;;;;;1.27;1.27;;;5.70;99.90;;;;;;494036;241;27476;-73
2021/12/01 10:05:21;;;;;;;1.10;1.10;;;5.70;99.90;;;;;;494061;241;27639;-76
2021/12/01 10:07:22;;;;;;;1.10;1.10;;;5.70;99.90;;;;;;494067;241;27529;-73
2021/12/01 10:09:24;;;;;;;1.00;1.00;;;5.70;99.90;;;;;;494048;241;27501;-74
2021/12/01 10:11:25;;;;;;;1.05;1.05;;;5.70;99.90;;;;;;494047;241;28061;-73
2021/12/01 10:13:26;;;;;;;1.00;1.00;;;5.80;99.90;;;;;;494015;241;27999;-74
2021/12/01 10:15:27;;;;;;;1.10;1.10;;;5.80;99.90;;;;;;494050;241;27501;-74
2021/12/01 10:17:29;;;;;;;1.00;1.00;;;5.80;99.90;;;;;;494038;241;27521;-76
2021/12/01 10:19:30;;;;;;;1.20;1.20;;;5.80;99.90;;;;;;494090;241;27469;-73
2021/12/01 10:21:31;;;;;;;1.40;1.30;;;5.80;99.90;;;;;;494021;241;27510;-75
2021/12/01 10:23:32;;;;;;;1.20;1.20;;;5.80;99.90;;;;;;494006;241;27576;-74
2021/12/01 10:25:34;;;;;;;1.30;1.20;;;5.80;99.90;;;;;;494001;241;27621;-76
2021/12/01 10:27:35;;;;;;;1.10;1.10;;;5.80;99.90;;;;;;494046;241;27551;-73
2021/12/01 10:29:36;;;;;;;1.50;1.10;;;5.90;99.90;;;;;;494005;241;27930;-73
2021/12/01 10:31:37;;;;;;;1.20;1.10;;;5.90;99.90;;;;;;494017;241;27982;-73
2021/12/01 10:33:39;;;;;;;1.08;1.08;;;5.90;99.90;;;;;;494002;241;27572;-77
2021/12/01 10:35:40;;;;;;;1.17;1.17;;;5.90;99.90;;;;;;494021;241;27557;-77
2021/12/01 10:37:41;;;;;;;1.40;1.00;;;5.90;99.90;;;;;;494033;241;27511;-76
2021/12/01 10:39:42;;;;;;;1.23;1.12;;;5.90;99.90;;;;;;494023;241;27605;-76
2021/12/01 10:41:44;;;;;;;1.10;1.10;;;5.90;99.90;;;;;;493972;241;27525;-76